Time,TemperatureF,DewpointF,PressureIn,WindDirection,WindDirectionDegrees,WindSpeedMPH,WindSpeedGustMPH,Humidity,HourlyPrecipIn,Conditions,Clouds,dailyrainin,SoftwareType,DateUTC
2013-04-14 00:00:00,42.6,39.3,29.92,WNW,297,1.0,1.0,88,0.00,,OVC080,0.00,VWS V14.01,2013-04-14 04:00:00,
2013-04-14 00:05:00,42.8,39.5,29.93,WNW,292,0.0,2.0,88,0.00,,OVC080,0.00,VWS V14.01,2013-04-14 04:05:00,
2013-04-14 00:10:00,42.9,39.6,29.93,West,271,0.0,2.0,88,0.00,,OVC080,0.00,VWS V14.01,2013-04-14 04:10:00,
2013-04-14 00:15:00,43.2,39.3,29.93,SW,221,0.0,3.0,86,0.00,,OVC080,0.00,VWS V14.01,2013-04-14 04:15:00,
2013-04-14 00:20:00,43.8,39.0,29.93,SW,223,1.0,3.0,83,0.00,,OVC080,0.00,VWS V14.01,2013-04-14 04:20:00,
2013-04-14 00:25:00,44.3,39.2,29.93,SW,215,0.0,3.0,82,0.00,,OVC080,0.00,VWS V14.01,2013-04-14 04:25:00,
2013-04-14 00:30:00,44.5,39.0,29.93,SW,223,0.0,3.0,81,0.00,,OVC080,0.00,VWS V14.01,2013-04-14 04:30:00,
2013-04-14 00:35:00,44.6,39.1,29.93,SW,223,0.0,3.0,81,0.00,,OVC080,0.00,VWS V14.01,2013-04-14 04:35:00,
2013-04-14 00:40:00,44.6,39.1,29.93,SW,223,0.0,3.0,81,0.00,,OVC080,0.00,VWS V14.01,2013-04-14 04:40:00,
2013-04-14 00:45:00,44.6,39.1,29.94,SW,223,0.0,3.0,81,0.00,,OVC080,0.00,VWS V14.01,2013-04-14 04:45:00,
2013-04-14 00:50:00,44.6,39.1,29.94,SW,223,0.0,3.0,81,0.00,,OVC080,0.00,VWS V14.01,2013-04-14 04:50:00,
2013-04-14 00:55:00,44.5,39.0,29.94,SW,223,0.0,3.0,81,0.00,,OVC080,0.00,VWS V14.01,2013-04-14 04:55:00,
2013-04-14 01:00:00,44.5,39.4,29.93,South,186,0.0,0.0,82,0.00,,-RA,0.00,VWS V14.01,2013-04-14 05:00:00,
2013-04-14 01:05:00,44.4,39.6,29.93,South,186,0.0,0.0,83,0.00,,-RA,0.00,VWS V14.01,2013-04-14 05:05:00,
2013-04-14 01:10:00,44.3,39.5,29.93,South,186,0.0,0.0,83,0.00,,-RA,0.00,VWS V14.01,2013-04-14 05:10:00,
2013-04-14 01:15:00,44.2,40.0,29.92,South,186,0.0,0.0,85,0.00,,-RA,0.00,VWS V14.01,2013-04-14 05:15:00,
2013-04-14 01:20:00,43.9,39.7,29.92,South,186,0.0,0.0,85,0.00,,-RA,0.00,VWS V14.01,2013-04-14 05:20:00,
2013-04-14 01:25:00,43.8,39.6,29.92,South,186,0.0,0.0,85,0.00,,-RA,0.00,VWS V14.01,2013-04-14 05:25:00,
2013-04-14 01:30:00,43.7,39.5,29.91,South,186,0.0,0.0,85,0.00,,-RA,0.00,VWS V14.01,2013-04-14 05:30:00,
2013-04-14 01:35:00,43.6,39.4,29.91,South,186,0.0,0.0,85,0.00,,-RA,0.00,VWS V14.01,2013-04-14 05:35:00,
2013-04-14 01:40:00,43.5,39.6,29.91,SE,144,0.0,0.0,86,0.00,,-RA,0.00,VWS V14.01,2013-04-14 05:40:00,
2013-04-14 01:45:00,43.3,39.7,29.91,SE,144,0.0,0.0,87,0.00,,-RA,0.00,VWS V14.01,2013-04-14 05:45:00,
2013-04-14 01:50:00,43.2,39.6,29.91,SE,144,0.0,0.0,87,0.00,,-RA,0.00,VWS V14.01,2013-04-14 05:50:00,
2013-04-14 01:55:00,43.1,39.5,29.91,SE,144,0.0,0.0,87,0.00,,-RA,0.00,VWS V14.01,2013-04-14 05:55:00,
2013-04-14 02:00:00,43.0,39.4,29.91,SE,144,0.0,0.0,87,0.00,,OVC045,0.00,VWS V14.01,2013-04-14 06:00:00,
2013-04-14 02:05:00,43.0,39.4,29.91,SE,144,0.0,0.0,87,0.00,,OVC045,0.00,VWS V14.01,2013-04-14 06:05:00,
2013-04-14 02:10:00,43.0,39.7,29.90,SE,144,0.0,0.0,88,0.00,,OVC045,0.00,VWS V14.01,2013-04-14 06:10:00,
2013-04-14 02:15:00,42.8,39.2,29.90,SE,144,0.0,0.0,87,0.00,,OVC045,0.00,VWS V14.01,2013-04-14 06:15:00,
2013-04-14 02:20:00,42.7,39.4,29.90,SE,145,0.0,0.0,88,0.00,,OVC045,0.00,VWS V14.01,2013-04-14 06:20:00,
2013-04-14 02:25:00,42.6,39.3,29.90,SE,146,0.0,0.0,88,0.00,,OVC045,0.00,VWS V14.01,2013-04-14 06:25:00,
2013-04-14 02:30:00,42.4,39.1,29.91,SE,145,0.0,0.0,88,0.00,,OVC045,0.00,VWS V14.01,2013-04-14 06:30:00,
2013-04-14 02:35:00,42.2,39.2,29.91,SE,146,0.0,0.0,89,0.00,,OVC045,0.00,VWS V14.01,2013-04-14 06:35:00,
2013-04-14 02:40:00,42.1,39.4,29.91,SE,146,0.0,0.0,90,0.00,,OVC045,0.00,VWS V14.01,2013-04-14 06:40:00,
2013-04-14 02:45:00,42.0,39.3,29.91,SE,144,0.0,0.0,90,0.00,,OVC045,0.00,VWS V14.01,2013-04-14 06:45:00,
2013-04-14 02:50:00,41.9,39.2,29.91,SE,144,0.0,0.0,90,0.00,,OVC045,0.00,VWS V14.01,2013-04-14 06:50:00,
2013-04-14 02:55:00,41.7,39.3,29.92,SE,144,0.0,0.0,91,0.00,,OVC045,0.00,VWS V14.01,2013-04-14 06:55:00,
2013-04-14 03:00:00,41.5,39.1,29.92,SE,144,0.0,0.0,91,0.00,,OVC090,0.00,VWS V14.01,2013-04-14 07:00:00,
2013-04-14 03:05:00,41.2,38.8,29.92,SE,144,0.0,0.0,91,0.00,,OVC090,0.00,VWS V14.01,2013-04-14 07:05:00,
2013-04-14 03:10:00,40.9,38.5,29.92,SE,144,0.0,0.0,91,0.00,,OVC090,0.00,VWS V14.01,2013-04-14 07:10:00,
2013-04-14 03:15:00,40.7,38.3,29.91,SE,144,0.0,0.0,91,0.00,,OVC090,0.00,VWS V14.01,2013-04-14 07:15:00,
2013-04-14 03:20:00,40.5,38.1,29.91,SE,144,0.0,0.0,91,0.00,,OVC090,0.00,VWS V14.01,2013-04-14 07:20:00,
2013-04-14 03:25:00,40.2,38.1,29.92,SSW,202,0.0,0.0,92,0.00,,OVC090,0.00,VWS V14.01,2013-04-14 07:25:00,
2013-04-14 03:30:00,39.9,37.8,29.92,SSW,209,0.0,0.0,92,0.00,,OVC090,0.00,VWS V14.01,2013-04-14 07:30:00,
2013-04-14 03:35:00,39.7,37.6,29.91,SSW,208,0.0,0.0,92,0.00,,OVC090,0.00,VWS V14.01,2013-04-14 07:35:00,
2013-04-14 03:40:00,39.6,37.5,29.91,SSW,207,0.0,0.0,92,0.00,,OVC090,0.00,VWS V14.01,2013-04-14 07:40:00,
2013-04-14 03:45:00,39.5,37.4,29.91,SSW,208,0.0,0.0,92,0.00,,OVC090,0.00,VWS V14.01,2013-04-14 07:45:00,
2013-04-14 03:50:00,39.4,37.3,29.91,SSW,207,0.0,0.0,92,0.00,,OVC090,0.00,VWS V14.01,2013-04-14 07:50:00,
2013-04-14 03:55:00,39.4,37.5,29.91,SSW,207,0.0,0.0,93,0.00,,OVC090,0.00,VWS V14.01,2013-04-14 07:55:00,
2013-04-14 04:00:00,39.4,37.5,29.92,SSW,207,0.0,0.0,93,0.00,,BKN100,0.00,VWS V14.01,2013-04-14 08:00:00,
2013-04-14 04:05:00,39.4,37.5,29.92,SSW,208,0.0,0.0,93,0.00,,BKN100,0.00,VWS V14.01,2013-04-14 08:05:00,
2013-04-14 04:10:00,39.3,37.5,29.92,SSW,207,0.0,0.0,93,0.00,,BKN100,0.00,VWS V14.01,2013-04-14 08:10:00,
2013-04-14 04:15:00,39.3,37.5,29.92,SSW,207,0.0,0.0,93,0.00,,BKN100,0.00,VWS V14.01,2013-04-14 08:15:00,
2013-04-14 04:20:00,39.4,37.5,29.92,SSW,207,0.0,0.0,93,0.00,,BKN100,0.00,VWS V14.01,2013-04-14 08:20:00,
2013-04-14 04:25:00,39.5,37.7,29.93,SSW,207,0.0,0.0,93,0.00,,BKN100,0.00,VWS V14.01,2013-04-14 08:25:00,
2013-04-14 04:30:00,39.6,37.5,29.92,SSW,209,0.0,0.0,92,0.00,,BKN100,0.00,VWS V14.01,2013-04-14 08:30:00,
2013-04-14 04:35:00,39.6,37.5,29.92,SSW,209,0.0,0.0,92,0.00,,BKN100,0.00,VWS V14.01,2013-04-14 08:35:00,
2013-04-14 04:40:00,39.6,37.5,29.93,SSW,209,0.0,0.0,92,0.00,,BKN100,0.00,VWS V14.01,2013-04-14 08:40:00,
2013-04-14 04:45:00,39.8,37.7,29.92,SSW,208,0.0,0.0,92,0.00,,BKN100,0.00,VWS V14.01,2013-04-14 08:45:00,
2013-04-14 04:50:00,39.9,37.8,29.93,SSW,209,0.0,0.0,92,0.00,,BKN100,0.00,VWS V14.01,2013-04-14 08:50:00,
2013-04-14 04:55:00,40.0,37.6,29.93,SSW,208,0.0,0.0,91,0.00,,BKN100,0.00,VWS V14.01,2013-04-14 08:55:00,
2013-04-14 05:00:00,40.1,37.4,29.93,SSW,207,0.0,0.0,90,0.00,,OVC100,0.00,VWS V14.01,2013-04-14 09:00:00,
2013-04-14 05:05:00,40.2,37.5,29.93,SW,217,0.0,0.0,90,0.00,,OVC100,0.00,VWS V14.01,2013-04-14 09:05:00,
2013-04-14 05:10:00,40.3,37.3,29.93,SW,223,0.0,1.0,89,0.00,,OVC100,0.00,VWS V14.01,2013-04-14 09:10:00,
2013-04-14 05:15:00,40.4,37.1,29.93,SW,221,0.0,1.0,88,0.00,,OVC100,0.00,VWS V14.01,2013-04-14 09:15:00,
2013-04-14 05:20:00,40.6,37.3,29.93,SSW,206,1.0,1.0,88,0.00,,OVC100,0.00,VWS V14.01,2013-04-14 09:20:00,
2013-04-14 05:25:00,40.8,37.2,29.93,SSW,212,0.0,1.0,87,0.00,,OVC100,0.00,VWS V14.01,2013-04-14 09:25:00,
2013-04-14 05:30:00,40.9,37.3,29.93,SSW,211,0.0,1.0,87,0.00,,OVC100,0.00,VWS V14.01,2013-04-14 09:30:00,
2013-04-14 05:35:00,40.8,37.5,29.93,SSW,211,0.0,1.0,88,0.00,,OVC100,0.00,VWS V14.01,2013-04-14 09:35:00,
2013-04-14 05:40:00,40.7,37.4,29.93,SSW,211,0.0,1.0,88,0.00,,OVC100,0.00,VWS V14.01,2013-04-14 09:40:00,
2013-04-14 05:45:00,40.6,37.3,29.93,SSW,211,0.0,1.0,88,0.00,,OVC100,0.00,VWS V14.01,2013-04-14 09:45:00,
2013-04-14 05:50:00,40.5,37.2,29.93,SSW,211,0.0,1.0,88,0.00,,OVC100,0.00,VWS V14.01,2013-04-14 09:50:00,
2013-04-14 05:55:00,40.4,37.1,29.93,SSW,211,0.0,1.0,88,0.00,,OVC100,0.00,VWS V14.01,2013-04-14 09:55:00,
2013-04-14 06:01:00,40.3,37.0,29.94,SSW,211,0.0,0.0,88,0.00,,OVC085,0.00,VWS V14.01,2013-04-14 10:01:00,
2013-04-14 06:06:00,40.3,37.0,29.94,SSW,211,0.0,0.0,88,0.00,,OVC085,0.00,VWS V14.01,2013-04-14 10:06:00,
2013-04-14 06:11:00,40.4,37.1,29.94,SSW,211,0.0,0.0,88,0.00,,OVC085,0.00,VWS V14.01,2013-04-14 10:11:00,
2013-04-14 06:16:00,40.4,37.1,29.94,SSW,211,0.0,0.0,88,0.00,,OVC085,0.00,VWS V14.01,2013-04-14 10:16:00,
2013-04-14 06:21:00,40.4,37.1,29.94,SSW,211,0.0,0.0,88,0.00,,OVC085,0.00,VWS V14.01,2013-04-14 10:21:00,
2013-04-14 06:26:00,40.4,37.1,29.94,SSW,211,0.0,0.0,88,0.00,,OVC085,0.00,VWS V14.01,2013-04-14 10:26:00,
2013-04-14 06:31:00,40.5,37.2,29.94,SSW,211,0.0,0.0,88,0.00,,OVC085,0.00,VWS V14.01,2013-04-14 10:31:00,
2013-04-14 06:36:00,40.5,37.2,29.94,SSW,212,0.0,0.0,88,0.00,,OVC085,0.00,VWS V14.01,2013-04-14 10:36:00,
2013-04-14 06:41:00,40.5,37.2,29.94,SSW,211,0.0,0.0,88,0.00,,OVC085,0.00,VWS V14.01,2013-04-14 10:41:00,
2013-04-14 06:46:00,40.6,37.6,29.95,SSW,211,0.0,0.0,89,0.00,,OVC085,0.00,VWS V14.01,2013-04-14 10:46:00,
2013-04-14 06:51:00,40.6,37.6,29.95,SSW,211,0.0,0.0,89,0.00,,OVC085,0.00,VWS V14.01,2013-04-14 10:51:00,
2013-04-14 06:56:00,40.5,37.5,29.95,SSW,211,0.0,0.0,89,0.00,,OVC085,0.00,VWS V14.01,2013-04-14 10:56:00,
2013-04-14 07:01:00,40.6,37.6,29.95,SSW,211,0.0,0.0,89,0.00,,OVC085,0.00,VWS V14.01,2013-04-14 11:01:00,
2013-04-14 07:06:00,40.7,37.7,29.95,SSW,212,0.0,0.0,89,0.00,,OVC085,0.00,VWS V14.01,2013-04-14 11:06:00,
2013-04-14 07:11:00,40.9,37.3,29.95,SSW,213,0.0,1.0,87,0.00,,OVC085,0.00,VWS V14.01,2013-04-14 11:11:00,
2013-04-14 07:16:00,41.1,37.5,29.95,SSW,213,0.0,1.0,87,0.00,,OVC085,0.00,VWS V14.01,2013-04-14 11:16:00,
2013-04-14 07:21:00,41.3,37.4,29.95,SSW,213,0.0,1.0,86,0.00,,OVC085,0.00,VWS V14.01,2013-04-14 11:21:00,
2013-04-14 07:26:00,41.5,37.3,29.95,SSW,213,0.0,1.0,85,0.00,,OVC085,0.00,VWS V14.01,2013-04-14 11:26:00,
2013-04-14 07:31:00,41.9,37.4,29.96,SSW,213,0.0,1.0,84,0.00,,OVC085,0.00,VWS V14.01,2013-04-14 11:31:00,
2013-04-14 07:36:00,42.6,37.5,29.96,WNW,283,0.0,1.0,82,0.00,,OVC085,0.00,VWS V14.01,2013-04-14 11:36:00,
2013-04-14 07:41:00,43.2,37.5,29.96,SE,145,0.0,1.0,80,0.00,,OVC085,0.00,VWS V14.01,2013-04-14 11:41:00,
2013-04-14 07:46:00,43.8,37.4,29.95,WSW,241,0.0,1.0,78,0.00,,OVC085,0.00,VWS V14.01,2013-04-14 11:46:00,
2013-04-14 07:51:00,44.2,37.1,29.96,WSW,256,1.0,1.0,76,0.00,,OVC085,0.00,VWS V14.01,2013-04-14 11:51:00,
2013-04-14 07:56:00,44.7,37.3,29.96,WSW,238,0.0,2.0,75,0.00,,OVC085,0.00,VWS V14.01,2013-04-14 11:56:00,
2013-04-14 08:01:00,45.2,37.1,29.96,WNW,291,3.0,3.0,73,0.00,,OVC085,0.00,VWS V14.01,2013-04-14 12:01:00,
2013-04-14 08:06:00,45.5,36.7,29.96,West,280,2.0,5.0,71,0.00,,OVC085,0.00,VWS V14.01,2013-04-14 12:06:00,
2013-04-14 08:11:00,45.8,36.6,29.95,WSW,248,1.0,5.0,70,0.00,,OVC085,0.00,VWS V14.01,2013-04-14 12:11:00,
2013-04-14 08:16:00,46.4,36.4,29.95,WNW,292,1.0,5.0,68,0.00,,OVC085,0.00,VWS V14.01,2013-04-14 12:16:00,
2013-04-14 08:21:00,46.7,36.0,29.94,WNW,287,1.0,5.0,66,0.00,,OVC085,0.00,VWS V14.01,2013-04-14 12:21:00,
2013-04-14 08:26:00,47.4,36.2,29.95,NNW,338,1.0,5.0,65,0.00,,OVC085,0.00,VWS V14.01,2013-04-14 12:26:00,
2013-04-14 08:31:00,48.0,36.0,29.96,West,277,5.0,6.0,63,0.00,,OVC085,0.00,VWS V14.01,2013-04-14 12:31:00,
2013-04-14 08:36:00,48.4,36.0,29.96,WNW,299,4.0,6.0,62,0.00,,OVC085,0.00,VWS V14.01,2013-04-14 12:36:00,
2013-04-14 08:41:00,48.5,35.7,29.96,WNW,296,6.0,8.0,61,0.00,,OVC085,0.00,VWS V14.01,2013-04-14 12:41:00,
2013-04-14 08:46:00,48.5,35.3,29.96,WNW,292,3.0,8.0,60,0.00,,OVC085,0.00,VWS V14.01,2013-04-14 12:46:00,
2013-04-14 08:51:00,48.3,34.7,29.96,WNW,286,3.0,8.0,59,0.00,,OVC085,0.00,VWS V14.01,2013-04-14 12:51:00,
2013-04-14 08:56:00,48.2,34.1,29.96,WNW,284,2.0,8.0,58,0.00,,OVC085,0.00,VWS V14.01,2013-04-14 12:56:00,
2013-04-14 09:01:00,48.2,35.4,29.96,West,269,1.0,3.0,61,0.00,,FEW050,0.00,VWS V14.01,2013-04-14 13:01:00,
2013-04-14 09:06:00,48.3,34.2,29.96,WSW,248,1.0,7.0,58,0.00,,FEW050,0.00,VWS V14.01,2013-04-14 13:06:00,
2013-04-14 09:11:00,48.1,34.0,29.96,West,276,1.0,7.0,58,0.00,,FEW050,0.00,VWS V14.01,2013-04-14 13:11:00,
2013-04-14 09:17:00,47.8,34.2,29.96,West,259,3.0,7.0,59,0.00,,FEW050,0.00,VWS V14.01,2013-04-14 13:17:00,
2013-04-14 09:22:00,47.7,33.7,29.96,WNW,288,4.0,9.0,58,0.00,,FEW050,0.00,VWS V14.01,2013-04-14 13:22:00,
2013-04-14 09:27:00,47.8,34.6,29.96,WSW,257,2.0,9.0,60,0.00,,FEW050,0.00,VWS V14.01,2013-04-14 13:27:00,
2013-04-14 09:32:00,48.1,34.0,29.96,WNW,287,3.0,9.0,58,0.00,,FEW050,0.00,VWS V14.01,2013-04-14 13:32:00,
2013-04-14 09:37:00,48.1,33.6,29.96,NW,315,3.0,9.0,57,0.00,,FEW050,0.00,VWS V14.01,2013-04-14 13:37:00,
2013-04-14 09:42:00,48.0,33.9,29.96,WNW,298,7.0,9.0,58,0.00,,FEW050,0.00,VWS V14.01,2013-04-14 13:42:00,
2013-04-14 09:47:00,48.3,34.2,29.96,West,279,2.0,9.0,58,0.00,,FEW050,0.00,VWS V14.01,2013-04-14 13:47:00,
2013-04-14 09:52:00,48.4,34.3,29.97,West,263,2.0,9.0,58,0.00,,FEW050,0.00,VWS V14.01,2013-04-14 13:52:00,
2013-04-14 09:57:00,48.3,33.8,29.97,SW,222,2.0,9.0,57,0.00,,FEW050,0.00,VWS V14.01,2013-04-14 13:57:00,
2013-04-14 10:02:00,47.9,34.3,29.97,NW,311,3.0,9.0,59,0.00,,BKN090,0.00,VWS V14.01,2013-04-14 14:02:00,
2013-04-14 10:07:00,47.7,34.1,29.97,WNW,294,4.0,9.0,59,0.00,,BKN090,0.00,VWS V14.01,2013-04-14 14:07:00,
2013-04-14 10:12:00,47.3,33.7,29.97,WNW,287,7.0,9.0,59,0.00,,BKN090,0.00,VWS V14.01,2013-04-14 14:12:00,
2013-04-14 10:17:00,46.9,33.3,29.97,WSW,252,5.0,9.0,59,0.00,,BKN090,0.00,VWS V14.01,2013-04-14 14:17:00,
2013-04-14 10:22:00,46.7,33.6,29.97,SW,236,1.0,9.0,60,0.00,,BKN090,0.00,VWS V14.01,2013-04-14 14:22:00,
2013-04-14 10:27:00,46.6,33.0,29.97,WSW,257,4.0,9.0,59,0.00,,BKN090,0.00,VWS V14.01,2013-04-14 14:27:00,
2013-04-14 10:32:00,46.4,32.4,29.98,SSW,205,3.0,9.0,58,0.00,,BKN090,0.00,VWS V14.01,2013-04-14 14:32:00,
2013-04-14 10:37:00,46.5,32.5,29.98,WNW,298,3.0,9.0,58,0.00,,BKN090,0.00,VWS V14.01,2013-04-14 14:37:00,
2013-04-14 10:42:00,46.4,32.4,29.98,WNW,294,1.0,9.0,58,0.00,,BKN090,0.00,VWS V14.01,2013-04-14 14:42:00,
2013-04-14 10:47:00,46.4,32.9,29.98,West,264,1.0,9.0,59,0.00,,BKN090,0.00,VWS V14.01,2013-04-14 14:47:00,
2013-04-14 10:52:00,46.6,32.6,29.98,WNW,292,7.0,9.0,58,0.00,,BKN090,0.00,VWS V14.01,2013-04-14 14:52:00,
2013-04-14 10:57:00,46.7,32.3,29.98,WNW,299,3.0,9.0,57,0.00,,BKN090,0.00,VWS V14.01,2013-04-14 14:57:00,
2013-04-14 11:02:00,46.7,31.9,29.98,West,275,5.0,7.0,56,0.00,,OVC047,0.00,VWS V14.01,2013-04-14 15:02:00,
2013-04-14 11:07:00,46.9,32.5,29.98,NNE,12,1.0,7.0,57,0.00,,OVC047,0.00,VWS V14.01,2013-04-14 15:07:00,
2013-04-14 11:12:00,47.1,31.8,29.98,WNW,292,3.0,8.0,55,0.00,,OVC047,0.00,VWS V14.01,2013-04-14 15:12:00,
2013-04-14 11:17:00,47.4,32.1,29.98,West,278,2.0,9.0,55,0.00,,OVC047,0.00,VWS V14.01,2013-04-14 15:17:00,
2013-04-14 11:22:00,47.8,32.4,29.98,NW,308,1.0,9.0,55,0.00,,OVC047,0.00,VWS V14.01,2013-04-14 15:22:00,
2013-04-14 11:27:00,47.8,32.4,29.98,SW,226,2.0,9.0,55,0.00,,OVC047,0.00,VWS V14.01,2013-04-14 15:27:00,
2013-04-14 11:32:00,48.3,32.4,29.98,SW,223,3.0,9.0,54,0.00,,OVC047,0.00,VWS V14.01,2013-04-14 15:32:00,
2013-04-14 11:37:00,49.1,32.7,29.98,WSW,244,2.0,9.0,53,0.00,,OVC047,0.00,VWS V14.01,2013-04-14 15:37:00,
2013-04-14 11:42:00,49.6,32.2,29.98,SW,219,3.0,9.0,51,0.00,,OVC047,0.00,VWS V14.01,2013-04-14 15:42:00,
2013-04-14 11:48:00,50.3,32.9,29.97,WNW,292,4.0,9.0,51,0.00,,OVC047,0.00,VWS V14.01,2013-04-14 15:48:00,
2013-04-14 11:53:00,50.1,31.7,29.97,West,265,1.0,9.0,49,0.00,,OVC047,0.00,VWS V14.01,2013-04-14 15:53:00,
2013-04-14 11:58:00,50.1,31.7,29.97,WNW,288,6.0,10.0,49,0.00,,OVC047,0.00,VWS V14.01,2013-04-14 15:58:00,
2013-04-14 12:03:00,50.0,31.1,29.97,West,271,2.0,9.0,48,0.00,,BKN080,0.00,VWS V14.01,2013-04-14 16:03:00,
2013-04-14 12:08:00,50.1,31.2,29.97,West,269,3.0,11.0,48,0.00,,BKN080,0.00,VWS V14.01,2013-04-14 16:08:00,
2013-04-14 12:13:00,50.0,30.6,29.97,NW,306,2.0,11.0,47,0.00,,BKN080,0.00,VWS V14.01,2013-04-14 16:13:00,
2013-04-14 12:18:00,50.5,30.5,29.97,SW,221,1.0,11.0,46,0.00,,BKN080,0.00,VWS V14.01,2013-04-14 16:18:00,
2013-04-14 12:23:00,50.5,30.5,29.97,WSW,242,3.0,11.0,46,0.00,,BKN080,0.00,VWS V14.01,2013-04-14 16:23:00,
2013-04-14 12:28:00,50.2,29.1,29.97,WNW,289,5.0,11.0,44,0.00,,BKN080,0.00,VWS V14.01,2013-04-14 16:28:00,
2013-04-14 12:33:00,50.0,28.4,29.97,WNW,284,3.0,11.0,43,0.00,,BKN080,0.00,VWS V14.01,2013-04-14 16:33:00,
2013-04-14 12:38:00,50.0,29.0,29.96,SW,222,4.0,11.0,44,0.00,,BKN080,0.00,VWS V14.01,2013-04-14 16:38:00,
2013-04-14 12:43:00,50.7,29.6,29.96,West,276,6.0,11.0,44,0.00,,BKN080,0.00,VWS V14.01,2013-04-14 16:43:00,
2013-04-14 12:48:00,51.4,29.7,29.96,West,264,2.0,11.0,43,0.00,,BKN080,0.00,VWS V14.01,2013-04-14 16:48:00,
2013-04-14 12:53:00,51.6,29.9,29.97,NW,309,3.0,11.0,43,0.00,,BKN080,0.00,VWS V14.01,2013-04-14 16:53:00,
2013-04-14 12:58:00,50.9,28.6,29.97,SSW,210,4.0,11.0,42,0.00,,BKN080,0.00,VWS V14.01,2013-04-14 16:58:00,
2013-04-14 13:03:00,50.6,29.0,29.97,WNW,292,2.0,7.0,43,0.00,,BKN060,0.00,VWS V14.01,2013-04-14 17:03:00,
2013-04-14 13:08:00,50.7,29.0,29.97,SW,227,8.0,8.0,43,0.00,,BKN060,0.00,VWS V14.01,2013-04-14 17:08:00,
2013-04-14 13:13:00,50.8,28.0,29.97,NW,304,4.0,8.0,41,0.00,,BKN060,0.00,VWS V14.01,2013-04-14 17:13:00,
2013-04-14 13:18:00,51.1,28.2,29.97,West,263,2.0,9.0,41,0.00,,BKN060,0.00,VWS V14.01,2013-04-14 17:18:00,
2013-04-14 13:23:00,51.7,27.6,29.97,West,276,4.0,9.0,39,0.00,,BKN060,0.00,VWS V14.01,2013-04-14 17:23:00,
2013-04-14 13:28:00,51.6,28.7,29.97,WSW,248,4.0,9.0,41,0.00,,BKN060,0.00,VWS V14.01,2013-04-14 17:28:00,
2013-04-14 13:33:00,51.4,27.9,29.97,WNW,286,2.0,9.0,40,0.00,,BKN060,0.00,VWS V14.01,2013-04-14 17:33:00,
2013-04-14 13:38:00,51.4,29.1,29.97,WNW,284,3.0,9.0,42,0.00,,BKN060,0.00,VWS V14.01,2013-04-14 17:38:00,
2013-04-14 13:43:00,51.5,29.2,29.97,WNW,294,4.0,9.0,42,0.00,,BKN060,0.00,VWS V14.01,2013-04-14 17:43:00,
2013-04-14 13:48:00,51.7,29.9,29.97,West,275,2.0,9.0,43,0.00,,BKN060,0.00,VWS V14.01,2013-04-14 17:48:00,
2013-04-14 13:53:00,52.0,29.0,29.97,WNW,300,6.0,11.0,41,0.00,,BKN060,0.00,VWS V14.01,2013-04-14 17:53:00,
2013-04-14 13:58:00,51.9,29.5,29.98,WNW,296,4.0,11.0,42,0.00,,BKN060,0.00,VWS V14.01,2013-04-14 17:58:00,
2013-04-14 14:03:00,52.4,29.4,29.98,NW,307,4.0,10.0,41,0.00,,BKN060,0.00,VWS V14.01,2013-04-14 18:03:00,
2013-04-14 14:08:00,52.3,29.3,29.98,WSW,242,7.0,10.0,41,0.00,,BKN060,0.00,VWS V14.01,2013-04-14 18:08:00,
2013-04-14 14:13:00,52.0,29.0,29.98,WNW,290,7.0,10.0,41,0.00,,BKN060,0.00,VWS V14.01,2013-04-14 18:13:00,
2013-04-14 14:18:00,51.7,27.6,29.98,WNW,290,6.0,10.0,39,0.00,,BKN060,0.00,VWS V14.01,2013-04-14 18:18:00,
2013-04-14 14:23:00,51.4,27.9,29.98,SW,218,5.0,11.0,40,0.00,,BKN060,0.00,VWS V14.01,2013-04-14 18:23:00,
2013-04-14 14:28:00,51.2,27.1,29.98,WNW,284,2.0,11.0,39,0.00,,BKN060,0.00,VWS V14.01,2013-04-14 18:28:00,
2013-04-14 14:33:00,51.3,27.8,29.98,SSW,201,5.0,11.0,40,0.00,,BKN060,0.00,VWS V14.01,2013-04-14 18:33:00,
2013-04-14 14:38:00,51.2,28.3,29.98,WNW,296,4.0,11.0,41,0.00,,BKN060,0.00,VWS V14.01,2013-04-14 18:38:00,
2013-04-14 14:43:00,51.1,28.8,29.99,West,259,3.0,12.0,42,0.00,,BKN060,0.00,VWS V14.01,2013-04-14 18:43:00,
2013-04-14 14:48:00,51.4,30.2,29.98,NNW,328,9.0,12.0,44,0.00,,BKN060,0.00,VWS V14.01,2013-04-14 18:48:00,
2013-04-14 14:53:00,51.1,29.4,29.99,WNW,299,4.0,12.0,43,0.00,,BKN060,0.00,VWS V14.01,2013-04-14 18:53:00,
2013-04-14 14:58:00,50.8,29.1,29.99,WNW,288,5.0,12.0,43,0.00,,BKN060,0.00,VWS V14.01,2013-04-14 18:58:00,
2013-04-14 15:03:00,50.5,29.4,29.99,WSW,252,2.0,9.0,44,0.00,,BKN065,0.00,VWS V14.01,2013-04-14 19:03:00,
2013-04-14 15:08:00,50.8,30.2,29.99,SE,126,5.0,9.0,45,0.00,,BKN065,0.00,VWS V14.01,2013-04-14 19:08:00,
2013-04-14 15:13:00,50.8,28.5,29.99,WSW,254,7.0,9.0,42,0.00,,BKN065,0.00,VWS V14.01,2013-04-14 19:13:00,
2013-04-14 15:18:00,50.5,28.3,29.99,West,271,2.0,9.0,42,0.00,,BKN065,0.00,VWS V14.01,2013-04-14 19:18:00,
2013-04-14 15:23:00,50.5,28.9,29.99,WSW,245,3.0,9.0,43,0.00,,BKN065,0.00,VWS V14.01,2013-04-14 19:23:00,
2013-04-14 15:28:00,50.8,29.7,29.99,WSW,242,5.0,9.0,44,0.00,,BKN065,0.00,VWS V14.01,2013-04-14 19:28:00,
2013-04-14 15:33:00,50.7,29.0,29.99,WNW,296,5.0,9.0,43,0.00,,BKN065,0.00,VWS V14.01,2013-04-14 19:33:00,
2013-04-14 15:38:00,51.0,29.3,29.99,WNW,284,3.0,9.0,43,0.00,,BKN065,0.00,VWS V14.01,2013-04-14 19:38:00,
2013-04-14 15:43:00,51.0,28.1,29.99,WNW,292,5.0,12.0,41,0.00,,BKN065,0.00,VWS V14.01,2013-04-14 19:43:00,
2013-04-14 15:48:00,51.1,29.4,29.99,WNW,289,5.0,12.0,43,0.00,,BKN065,0.00,VWS V14.01,2013-04-14 19:48:00,
2013-04-14 15:53:00,51.4,27.9,30.00,WNW,284,5.0,15.0,40,0.00,,BKN065,0.00,VWS V14.01,2013-04-14 19:53:00,
2013-04-14 15:58:00,52.2,28.6,30.00,WNW,287,7.0,8.0,40,0.00,,BKN065,0.00,VWS V14.01,2013-04-14 19:58:00,
2013-04-14 16:03:00,51.9,29.0,30.00,WNW,303,6.0,12.0,41,0.00,,BKN070,0.00,VWS V14.01,2013-04-14 20:03:00,
2013-04-14 16:08:00,51.9,28.4,30.00,NW,318,7.0,14.0,40,0.00,,BKN070,0.00,VWS V14.01,2013-04-14 20:08:00,
2013-04-14 16:13:00,52.1,28.5,30.00,WNW,287,3.0,14.0,40,0.00,,BKN070,0.00,VWS V14.01,2013-04-14 20:13:00,
2013-04-14 16:18:00,52.2,28.0,30.00,NW,319,4.0,15.0,39,0.00,,BKN070,0.00,VWS V14.01,2013-04-14 20:18:00,
2013-04-14 16:23:00,52.4,28.8,30.00,WNW,294,9.0,15.0,40,0.00,,BKN070,0.00,VWS V14.01,2013-04-14 20:23:00,
2013-04-14 16:28:00,52.3,28.7,30.00,WNW,289,3.0,15.0,40,0.00,,BKN070,0.00,VWS V14.01,2013-04-14 20:28:00,
2013-04-14 16:33:00,52.0,27.8,30.01,WNW,287,12.0,15.0,39,0.00,,BKN070,0.00,VWS V14.01,2013-04-14 20:33:00,
2013-04-14 16:38:00,51.0,27.5,30.01,NW,313,3.0,15.0,40,0.00,,BKN070,0.00,VWS V14.01,2013-04-14 20:38:00,
2013-04-14 16:43:00,50.6,28.4,30.01,NW,319,3.0,15.0,42,0.00,,BKN070,0.00,VWS V14.01,2013-04-14 20:43:00,
2013-04-14 16:48:00,50.2,27.4,30.01,SW,229,2.0,15.0,41,0.00,,BKN070,0.00,VWS V14.01,2013-04-14 20:48:00,
2013-04-14 16:53:00,49.7,27.0,30.02,WNW,295,8.0,15.0,41,0.00,,BKN070,0.00,VWS V14.01,2013-04-14 20:53:00,
2013-04-14 16:58:00,49.2,25.9,30.02,WNW,284,8.0,9.0,40,0.00,,BKN070,0.00,VWS V14.01,2013-04-14 20:58:00,
2013-04-14 17:03:00,49.1,26.4,30.02,NW,306,6.0,9.0,41,0.00,,OVC075,0.00,VWS V14.01,2013-04-14 21:03:00,
2013-04-14 17:08:00,48.9,26.8,30.02,WNW,292,4.0,13.0,42,0.00,,OVC075,0.00,VWS V14.01,2013-04-14 21:08:00,
2013-04-14 17:13:00,49.1,28.1,30.03,WNW,287,6.0,13.0,44,0.00,,OVC075,0.00,VWS V14.01,2013-04-14 21:13:00,
2013-04-14 17:18:00,49.8,28.2,30.03,WNW,294,6.0,14.0,43,0.00,,OVC075,0.00,VWS V14.01,2013-04-14 21:18:00,
2013-04-14 17:23:00,50.2,29.7,30.03,WNW,291,3.0,14.0,45,0.00,,OVC075,0.00,VWS V14.01,2013-04-14 21:23:00,
2013-04-14 17:28:00,50.3,27.5,30.04,WNW,287,13.0,17.0,41,0.00,,OVC075,0.00,VWS V14.01,2013-04-14 21:28:00,
2013-04-14 17:33:00,49.9,27.1,30.04,WNW,300,3.0,17.0,41,0.00,,OVC075,0.00,VWS V14.01,2013-04-14 21:33:00,
2013-04-14 17:38:00,49.9,26.6,30.04,SW,229,1.0,18.0,40,0.00,,OVC075,0.00,VWS V14.01,2013-04-14 21:38:00,
2013-04-14 17:43:00,49.9,26.6,30.05,WNW,294,6.0,18.0,40,0.00,,OVC075,0.00,VWS V14.01,2013-04-14 21:43:00,
2013-04-14 17:48:00,49.8,27.1,30.05,West,280,6.0,18.0,41,0.00,,OVC075,0.00,VWS V14.01,2013-04-14 21:48:00,
2013-04-14 17:53:00,49.9,27.7,30.05,WNW,294,11.0,18.0,42,0.00,,OVC075,0.00,VWS V14.01,2013-04-14 21:53:00,
2013-04-14 17:58:00,50.0,27.8,30.05,NW,311,1.0,1.0,42,0.00,,OVC075,0.00,VWS V14.01,2013-04-14 21:58:00,
2013-04-14 18:03:00,49.8,27.1,30.05,West,269,2.0,10.0,41,0.00,,BKN075,0.00,VWS V14.01,2013-04-14 22:03:00,
2013-04-14 18:08:00,50.2,28.0,30.05,WSW,255,1.0,10.0,42,0.00,,BKN075,0.00,VWS V14.01,2013-04-14 22:08:00,
2013-04-14 18:13:00,50.0,27.8,30.06,WNW,294,2.0,12.0,42,0.00,,BKN075,0.00,VWS V14.01,2013-04-14 22:13:00,
2013-04-14 18:18:00,49.9,27.7,30.06,WNW,292,6.0,12.0,42,0.00,,BKN075,0.00,VWS V14.01,2013-04-14 22:18:00,
2013-04-14 18:23:00,49.9,27.1,30.06,West,273,4.0,12.0,41,0.00,,BKN075,0.00,VWS V14.01,2013-04-14 22:23:00,
2013-04-14 18:28:00,49.3,27.2,30.06,West,280,3.0,12.0,42,0.00,,BKN075,0.00,VWS V14.01,2013-04-14 22:28:00,
2013-04-14 18:33:00,48.9,26.8,30.06,WNW,291,4.0,12.0,42,0.00,,BKN075,0.00,VWS V14.01,2013-04-14 22:33:00,
2013-04-14 18:38:00,48.6,27.1,30.06,WNW,298,1.0,12.0,43,0.00,,BKN075,0.00,VWS V14.01,2013-04-14 22:38:00,
2013-04-14 18:44:00,48.3,26.9,30.07,SW,229,2.0,12.0,43,0.00,,BKN075,0.00,VWS V14.01,2013-04-14 22:44:00,
2013-04-14 18:49:00,48.0,27.1,30.07,WSW,252,1.0,13.0,44,0.00,,BKN075,0.00,VWS V14.01,2013-04-14 22:49:00,
2013-04-14 18:54:00,47.8,26.4,30.07,WNW,283,2.0,13.0,43,0.00,,BKN075,0.00,VWS V14.01,2013-04-14 22:54:00,
2013-04-14 18:59:00,47.7,26.9,30.07,West,277,3.0,3.0,44,0.00,,BKN075,0.00,VWS V14.01,2013-04-14 22:59:00,
2013-04-14 19:04:00,47.5,27.2,30.07,West,280,5.0,7.0,45,0.00,,CLR,0.00,VWS V14.01,2013-04-14 23:04:00,
2013-04-14 19:09:00,47.3,27.0,30.07,West,267,2.0,7.0,45,0.00,,CLR,0.00,VWS V14.01,2013-04-14 23:09:00,
2013-04-14 19:14:00,47.1,27.4,30.08,WNW,286,1.0,7.0,46,0.00,,CLR,0.00,VWS V14.01,2013-04-14 23:14:00,
2013-04-14 19:19:00,46.9,27.2,30.08,WNW,300,3.0,7.0,46,0.00,,CLR,0.00,VWS V14.01,2013-04-14 23:19:00,
2013-04-14 19:24:00,46.7,27.6,30.09,WNW,295,3.0,7.0,47,0.00,,CLR,0.00,VWS V14.01,2013-04-14 23:24:00,
2013-04-14 19:29:00,46.5,27.4,30.09,WNW,300,3.0,7.0,47,0.00,,CLR,0.00,VWS V14.01,2013-04-14 23:29:00,
2013-04-14 19:34:00,46.3,27.2,30.09,WNW,294,4.0,7.0,47,0.00,,CLR,0.00,VWS V14.01,2013-04-14 23:34:00,
2013-04-14 19:39:00,46.3,27.2,30.10,WNW,294,1.0,7.0,47,0.00,,CLR,0.00,VWS V14.01,2013-04-14 23:39:00,
2013-04-14 19:44:00,46.1,27.5,30.10,WNW,284,0.0,7.0,48,0.00,,CLR,0.00,VWS V14.01,2013-04-14 23:44:00,
2013-04-14 19:49:00,46.0,27.4,30.10,WNW,294,0.0,7.0,48,0.00,,CLR,0.00,VWS V14.01,2013-04-14 23:49:00,
2013-04-14 19:54:00,45.8,27.2,30.11,WSW,256,0.0,7.0,48,0.00,,CLR,0.00,VWS V14.01,2013-04-14 23:54:00,
2013-04-14 19:59:00,45.6,27.6,30.11,West,265,0.0,1.0,49,0.00,,CLR,0.00,VWS V14.01,2013-04-14 23:59:00,
2013-04-14 20:04:00,45.3,27.8,30.11,West,279,1.0,2.0,50,0.00,,CLR,0.00,VWS V14.01,2013-04-15 00:04:00,
2013-04-14 20:09:00,45.1,27.6,30.11,WNW,287,1.0,3.0,50,0.00,,CLR,0.00,VWS V14.01,2013-04-15 00:09:00,
2013-04-14 20:14:00,44.9,27.9,30.12,WNW,286,1.0,3.0,51,0.00,,CLR,0.00,VWS V14.01,2013-04-15 00:14:00,
2013-04-14 20:19:00,44.7,27.7,30.12,WSW,254,0.0,3.0,51,0.00,,CLR,0.00,VWS V14.01,2013-04-15 00:19:00,
2013-04-14 20:24:00,44.5,28.0,30.12,West,268,1.0,3.0,52,0.00,,CLR,0.00,VWS V14.01,2013-04-15 00:24:00,
2013-04-14 20:29:00,44.4,27.9,30.13,SW,236,1.0,3.0,52,0.00,,CLR,0.00,VWS V14.01,2013-04-15 00:29:00,
2013-04-14 20:34:00,44.2,28.2,30.13,WSW,241,0.0,3.0,53,0.00,,CLR,0.00,VWS V14.01,2013-04-15 00:34:00,
2013-04-14 20:39:00,44.0,28.0,30.14,West,264,0.0,3.0,53,0.00,,CLR,0.00,VWS V14.01,2013-04-15 00:39:00,
2013-04-14 20:44:00,43.9,27.9,30.14,WSW,253,1.0,3.0,53,0.00,,CLR,0.00,VWS V14.01,2013-04-15 00:44:00,
2013-04-14 20:49:00,43.7,28.2,30.14,WSW,252,0.0,3.0,54,0.00,,CLR,0.00,VWS V14.01,2013-04-15 00:49:00,
2013-04-14 20:54:00,43.5,28.4,30.15,West,266,0.0,3.0,55,0.00,,CLR,0.00,VWS V14.01,2013-04-15 00:54:00,
2013-04-14 20:59:00,43.3,28.2,30.15,WNW,284,0.0,1.0,55,0.00,,CLR,0.00,VWS V14.01,2013-04-15 00:59:00,
2013-04-14 21:04:00,43.1,28.5,30.15,West,275,0.0,1.0,56,0.00,,CLR,0.00,VWS V14.01,2013-04-15 01:04:00,
2013-04-14 21:09:00,42.8,28.2,30.16,West,273,0.0,1.0,56,0.00,,CLR,0.00,VWS V14.01,2013-04-15 01:09:00,
2013-04-14 21:14:00,42.6,28.5,30.16,West,261,0.0,1.0,57,0.00,,CLR,0.00,VWS V14.01,2013-04-15 01:14:00,
2013-04-14 21:19:00,42.5,28.4,30.17,West,260,0.0,1.0,57,0.00,,CLR,0.00,VWS V14.01,2013-04-15 01:19:00,
2013-04-14 21:24:00,42.2,28.5,30.17,WSW,244,0.0,1.0,58,0.00,,CLR,0.00,VWS V14.01,2013-04-15 01:24:00,
2013-04-14 21:29:00,41.9,28.2,30.17,West,281,0.0,1.0,58,0.00,,CLR,0.00,VWS V14.01,2013-04-15 01:29:00,
2013-04-14 21:34:00,41.7,28.4,30.17,West,281,0.0,1.0,59,0.00,,CLR,0.00,VWS V14.01,2013-04-15 01:34:00,
2013-04-14 21:39:00,41.4,28.6,30.18,WNW,283,0.0,1.0,60,0.00,,CLR,0.00,VWS V14.01,2013-04-15 01:39:00,
2013-04-14 21:44:00,41.2,28.8,30.18,WNW,283,0.0,1.0,61,0.00,,CLR,0.00,VWS V14.01,2013-04-15 01:44:00,
2013-04-14 21:49:00,41.1,28.3,30.18,WNW,283,0.0,1.0,60,0.00,,CLR,0.00,VWS V14.01,2013-04-15 01:49:00,
2013-04-14 21:54:00,40.7,28.3,30.18,WNW,283,0.0,1.0,61,0.00,,CLR,0.00,VWS V14.01,2013-04-15 01:54:00,
2013-04-14 21:59:00,40.4,28.4,30.18,WNW,283,0.0,0.0,62,0.00,,CLR,0.00,VWS V14.01,2013-04-15 01:59:00,
2013-04-14 22:04:00,40.1,28.1,30.18,NNW,342,0.0,1.0,62,0.00,,CLR,0.00,VWS V14.01,2013-04-15 02:04:00,
2013-04-14 22:09:00,40.1,28.1,30.18,NNW,342,0.0,1.0,62,0.00,,CLR,0.00,VWS V14.01,2013-04-15 02:09:00,
2013-04-14 22:14:00,40.1,28.1,30.18,NNW,340,0.0,1.0,62,0.00,,CLR,0.00,VWS V14.01,2013-04-15 02:14:00,
2013-04-14 22:19:00,40.1,28.1,30.18,NW,325,0.0,1.0,62,0.00,,CLR,0.00,VWS V14.01,2013-04-15 02:19:00,
2013-04-14 22:24:00,39.9,28.3,30.18,West,260,0.0,1.0,63,0.00,,CLR,0.00,VWS V14.01,2013-04-15 02:24:00,
2013-04-14 22:29:00,39.7,28.9,30.18,West,260,0.0,1.0,65,0.00,,CLR,0.00,VWS V14.01,2013-04-15 02:29:00,
2013-04-14 22:34:00,39.4,28.6,30.18,West,260,0.0,1.0,65,0.00,,CLR,0.00,VWS V14.01,2013-04-15 02:34:00,
2013-04-14 22:39:00,39.2,28.8,30.18,WSW,254,0.0,1.0,66,0.00,,CLR,0.00,VWS V14.01,2013-04-15 02:39:00,
2013-04-14 22:44:00,39.1,28.7,30.18,WSW,254,0.0,1.0,66,0.00,,CLR,0.00,VWS V14.01,2013-04-15 02:44:00,
2013-04-14 22:49:00,38.9,28.5,30.18,WSW,254,0.0,1.0,66,0.00,,CLR,0.00,VWS V14.01,2013-04-15 02:49:00,
2013-04-14 22:54:00,38.7,28.3,30.18,WSW,254,0.0,1.0,66,0.00,,CLR,0.00,VWS V14.01,2013-04-15 02:54:00,
2013-04-14 22:59:00,38.3,28.3,30.18,WSW,254,0.0,0.0,67,0.00,,CLR,0.00,VWS V14.01,2013-04-15 02:59:00,
2013-04-14 23:04:00,38.0,28.0,30.18,WSW,254,0.0,0.0,67,0.00,,CLR,0.00,VWS V14.01,2013-04-15 03:04:00,
2013-04-14 23:09:00,37.9,28.3,30.19,WSW,254,0.0,0.0,68,0.00,,CLR,0.00,VWS V14.01,2013-04-15 03:09:00,
2013-04-14 23:14:00,38.1,28.1,30.19,WSW,254,0.0,1.0,67,0.00,,CLR,0.00,VWS V14.01,2013-04-15 03:14:00,
2013-04-14 23:19:00,38.1,28.5,30.19,WSW,254,0.0,1.0,68,0.00,,CLR,0.00,VWS V14.01,2013-04-15 03:19:00,
2013-04-14 23:24:00,37.7,28.8,30.19,WSW,254,0.0,1.0,70,0.00,,CLR,0.00,VWS V14.01,2013-04-15 03:24:00,
2013-04-14 23:29:00,37.3,28.8,30.19,WSW,254,0.0,1.0,71,0.00,,CLR,0.00,VWS V14.01,2013-04-15 03:29:00,
2013-04-14 23:34:00,37.0,28.8,30.19,WSW,254,0.0,1.0,72,0.00,,CLR,0.00,VWS V14.01,2013-04-15 03:34:00,
2013-04-14 23:39:00,36.8,29.0,30.19,WSW,254,0.0,1.0,73,0.00,,CLR,0.00,VWS V14.01,2013-04-15 03:39:00,
2013-04-14 23:44:00,36.6,28.8,30.19,WSW,254,0.0,1.0,73,0.00,,CLR,0.00,VWS V14.01,2013-04-15 03:44:00,
2013-04-14 23:49:00,36.7,28.9,30.19,WSW,254,0.0,1.0,73,0.00,,CLR,0.00,VWS V14.01,2013-04-15 03:49:00,
2013-04-14 23:54:00,36.5,28.7,30.20,WSW,254,0.0,1.0,73,0.00,,CLR,0.00,VWS V14.01,2013-04-15 03:54:00,
2013-04-14 23:59:00,36.7,28.9,30.20,WSW,254,0.0,0.0,73,0.00,,CLR,0.00,VWS V14.01,2013-04-15 03:59:00,